Pisgah, Alabama
Current Conditions -  °F | °C
As of 11:35 PM on Thursday 27 Nov 2014 (Local Time) from K4A6 Reporting Station
Broken Clouds Broken Clouds  
Wind Chill: 25°   Ceiling: 3000
Heat Index: 32°   Visibility: 10mi
Dew Point: 21°   Wind: 8mph
Humidity: 64%   Direction: 30°NNE
Pressure: 30.45"   Gusts: NA
Location:  34.68°N, 85.85°W
Report Text: K4A6 280535Z AUTO 03007KT 10SM BKN030 BKN050 00/M06 A3045 RMK AO2
Loading
Personal Weather Stations






























Interactive Weather Map New forecast layout! Learn more

10-Day Weather Forecast

Advertisements
Track Severe Weather on mobile